KCBK

Shalz Field Airport

Colby, Kansas, USA
METAR KCBK 170055Z AUTO 14004KT 10SM CLR 04/M06 A3031 RMK AO2
Observed Flight Rules
Dec-17 @ 00:55 UTC (12 minutes ago) Visual Flight Rules
Wind Visibility Clouds
140° at 4 knots 10 miles
  • Clear skies
Temperatures Readings
Current 4°C / 39°F
Dewpoint -6°C / 21°F
Humidity 48%
Altimeter 30.31" Hg
Pressure 1026 hPa
Elevation 971
METAR KCBK 170055Z AUTO 14004KT 10SM CLR 04/M06 A3031 RMK AO2
Observed Flight Rules
Dec-17 @ 00:55 UTC
(12 minutes ago)
VFR
Wind Visibility
140° at 4 knots 10 miles
Clouds
  • Clear skies
Temperature Dewpoint
4°C / 39°F -6°C / 21°F
Humidity Altimeter Pressure
48% 30.31" Hg 1026 hPa